createdAt,value
2022-08-29T00:01:52.584Z,100493.06
2022-08-29T00:04:39.644Z,100493.09
2022-08-29T00:07:19.662Z,100491.56
2022-08-29T00:10:06.499Z,100484.28
2022-08-29T00:12:46.655Z,100488.22
2022-08-29T00:15:35.131Z,100495.13
2022-08-29T00:18:26.627Z,100493.84
2022-08-29T00:21:13.500Z,100488.16
2022-08-29T00:24:00.505Z,100489.78
2022-08-29T00:26:41.051Z,100497.44
2022-08-29T00:29:27.503Z,100497.03
2022-08-29T00:32:08.227Z,100491.91
2022-08-29T00:34:54.530Z,100501.19
2022-08-29T00:37:41.523Z,100497.19
2022-08-29T00:40:25.672Z,100501.19
2022-08-29T00:43:13.487Z,100497.97
2022-08-29T00:46:02.669Z,100499.28
2022-08-29T00:48:53.491Z,100500.47
2022-08-29T00:51:41.520Z,100500.16
2022-08-29T00:54:22.711Z,100495.03
2022-08-29T00:57:10.522Z,100490.25
2022-08-29T00:59:51.967Z,100496.75
2022-08-29T01:02:40.441Z,100500.75
2022-08-29T01:05:22.505Z,100494.34
2022-08-29T01:08:09.482Z,100484.31
2022-08-29T01:11:09.842Z,100485.91
2022-08-29T01:13:58.496Z,100485.56
2022-08-29T01:16:39.361Z,100481.16
2022-08-29T01:19:58.466Z,100475.56
2022-08-29T01:23:01.044Z,100480.00
2022-08-29T01:25:52.493Z,100482.84
2022-08-29T01:28:49.454Z,100479.25
2022-08-29T01:31:57.481Z,100474.88
2022-08-29T01:34:44.467Z,100467.63
2022-08-29T01:37:37.435Z,100471.69
2022-08-29T01:40:25.472Z,100471.72
2022-08-29T01:43:12.494Z,100466.50
2022-08-29T01:45:52.595Z,100459.25
2022-08-29T01:48:39.405Z,100465.28
2022-08-29T01:51:20.590Z,100469.31
2022-08-29T01:54:07.416Z,100470.53
2022-08-29T01:56:52.161Z,100462.09
2022-08-29T01:59:39.419Z,100463.69
2022-08-29T02:02:36.434Z,100462.47
2022-08-29T02:05:18.052Z,100456.47
2022-08-29T02:08:04.422Z,100456.47
2022-08-29T02:10:51.403Z,100459.28
2022-08-29T02:13:38.412Z,100446.41
2022-08-29T02:16:25.433Z,100448.03
2022-08-29T02:19:06.514Z,100458.09
2022-08-29T02:21:53.423Z,100452.03
2022-08-29T02:24:33.596Z,100458.47
2022-08-29T02:27:20.377Z,100454.47
2022-08-29T02:30:14.418Z,100464.47
2022-08-29T02:33:01.365Z,100458.88
2022-08-29T02:35:51.385Z,100460.06
2022-08-29T02:38:32.407Z,100458.06
2022-08-29T02:41:14.362Z,100459.28
2022-08-29T02:44:01.356Z,100458.88
2022-08-29T02:46:48.394Z,100472.53
2022-08-29T02:49:28.499Z,100466.06
2022-08-29T02:52:17.387Z,100461.25
2022-08-29T02:54:57.489Z,100468.88
2022-08-29T02:57:44.388Z,100468.88
2022-08-29T03:00:28.568Z,100472.91
2022-08-29T03:03:15.360Z,100474.91
2022-08-29T03:05:56.749Z,100478.53
2022-08-29T03:26:10.447Z,100485.56
2022-08-29T03:28:57.532Z,100480.03
2022-08-29T03:31:38.511Z,100480.03
2022-08-29T03:34:25.459Z,100488.13
2022-08-29T03:37:06.442Z,100490.97
2022-08-29T03:39:46.759Z,100495.78
2022-08-29T03:42:33.419Z,100495.38
2022-08-29T03:45:18.670Z,100495.41
2022-08-29T03:48:05.439Z,100505.84
2022-08-29T03:50:56.302Z,100503.44
2022-08-29T03:53:43.460Z,100509.84
2022-08-29T03:56:31.445Z,100510.28
2022-08-29T03:59:13.557Z,100508.25
2022-08-29T04:02:00.504Z,100506.25
2022-08-29T04:04:59.597Z,100511.88
2022-08-29T04:07:51.418Z,100508.25
2022-08-29T04:10:38.108Z,100512.69
2022-08-29T04:13:26.400Z,100508.66
2022-08-29T04:16:22.645Z,100514.25
2022-08-29T04:19:02.409Z,100521.44
2022-08-29T04:21:44.857Z,100515.28
2022-08-29T04:24:31.385Z,100524.84
2022-08-29T04:27:18.418Z,100517.84
2022-08-29T04:29:58.543Z,100516.72
2022-08-29T04:32:45.426Z,100526.50
2022-08-29T04:35:32.381Z,100522.63
2022-08-29T04:38:12.918Z,100521.59
2022-08-29T04:41:00.381Z,100517.69
2022-08-29T04:43:46.087Z,100523.25
2022-08-29T04:46:32.437Z,100522.34
2022-08-29T04:49:19.470Z,100521.78
2022-08-29T04:52:00.474Z,100530.63
2022-08-29T04:54:47.391Z,100527.44
2022-08-29T04:57:27.555Z,100530.09
2022-08-29T05:00:21.385Z,100527.50
2022-08-29T05:03:01.502Z,100533.22
2022-08-29T05:05:48.370Z,100529.31
2022-08-29T05:08:28.460Z,100525.91
2022-08-29T05:11:23.328Z,100527.84
2022-08-29T05:14:04.495Z,100531.03
2022-08-29T05:16:51.313Z,100530.56
2022-08-29T05:19:34.688Z,100534.38
2022-08-29T05:22:25.325Z,100525.69
2022-08-29T05:25:19.389Z,100535.88
2022-08-29T05:27:59.966Z,100540.03
2022-08-29T05:30:46.399Z,100539.47
2022-08-29T05:33:34.330Z,100545.63
2022-08-29T05:36:21.312Z,100544.41
2022-08-29T05:39:08.348Z,100547.03
2022-08-29T05:42:00.347Z,100549.56
2022-08-29T05:44:47.362Z,100546.06
2022-08-29T05:47:35.318Z,100552.94
2022-08-29T05:50:23.326Z,100558.63
2022-08-29T05:53:10.319Z,100553.94
2022-08-29T05:55:57.278Z,100554.63
2022-08-29T05:58:44.334Z,100561.38
2022-08-29T06:01:28.147Z,100563.41
2022-08-29T06:04:15.319Z,100558.41
2022-08-29T06:06:55.736Z,100563.47
2022-08-29T06:09:42.278Z,100553.38
2022-08-29T06:12:24.287Z,100554.34
2022-08-29T06:15:11.282Z,100560.28
2022-08-29T06:17:58.306Z,100556.16
2022-08-29T06:20:38.520Z,100553.56
2022-08-29T06:23:26.670Z,100549.09
2022-08-29T06:26:23.292Z,100551.97
2022-08-29T06:29:13.284Z,100551.41
2022-08-29T06:31:53.431Z,100544.13
2022-08-29T06:34:40.274Z,100549.28
2022-08-29T06:37:20.360Z,100549.91
2022-08-29T06:40:07.592Z,100547.72
2022-08-29T06:42:47.443Z,100556.00
2022-08-29T06:45:34.290Z,100546.28
2022-08-29T06:48:15.465Z,100550.41
2022-08-29T06:51:02.246Z,100546.78
2022-08-29T06:53:49.298Z,100549.94
2022-08-29T06:56:30.427Z,100547.63
2022-08-29T06:59:18.268Z,100547.97
2022-08-29T07:01:58.754Z,100543.56
2022-08-29T07:04:45.252Z,100555.72
2022-08-29T07:07:25.705Z,100549.94
2022-08-29T07:10:12.213Z,100556.78
2022-08-29T07:12:53.281Z,100558.19
2022-08-29T07:15:40.369Z,100561.31
2022-08-29T07:18:21.318Z,100578.75
2022-08-29T07:21:08.243Z,100573.19
2022-08-29T07:23:50.254Z,100572.56
2022-08-29T07:26:48.273Z,100570.31
2022-08-29T07:29:35.483Z,100583.09
2022-08-29T07:32:15.238Z,100588.19
2022-08-29T07:34:56.401Z,100585.16
2022-08-29T07:37:45.727Z,100587.22
2022-08-29T07:40:36.296Z,100594.00
2022-08-29T07:43:27.775Z,100583.50
2022-08-29T07:46:17.234Z,100594.47
2022-08-29T07:48:57.318Z,100589.69
2022-08-29T07:51:45.228Z,100589.19
2022-08-29T07:54:25.886Z,100592.88
2022-08-29T07:57:12.207Z,100590.19
2022-08-29T07:59:52.265Z,100593.94
2022-08-29T08:02:39.293Z,100594.50
2022-08-29T08:05:26.198Z,100591.19
2022-08-29T08:08:15.062Z,100594.75
2022-08-29T08:11:02.201Z,100597.47
2022-08-29T08:13:49.166Z,100594.06
2022-08-29T08:16:31.486Z,100592.88
2022-08-29T08:19:20.133Z,100600.31
2022-08-29T08:22:00.789Z,100590.56
2022-08-29T08:24:47.162Z,100602.00
2022-08-29T08:27:27.290Z,100597.19
2022-08-29T08:30:15.161Z,100597.31
2022-08-29T08:33:02.164Z,100599.16
2022-08-29T08:35:49.140Z,100595.75
2022-08-29T08:38:36.154Z,100590.78
2022-08-29T08:41:27.213Z,100598.47
2022-08-29T08:44:12.353Z,100597.56
2022-08-29T08:47:05.163Z,100600.88
2022-08-29T08:50:05.126Z,100604.59
2022-08-29T08:53:01.152Z,100598.19
2022-08-29T08:55:57.262Z,100598.38
2022-08-29T08:59:02.350Z,100598.28
2022-08-29T09:01:55.300Z,100602.91
2022-08-29T09:05:13.374Z,100600.44
2022-08-29T09:08:06.375Z,100600.97
2022-08-29T09:10:58.910Z,100601.88
2022-08-29T09:14:10.135Z,100595.22
2022-08-29T09:16:54.840Z,100605.22
2022-08-29T09:19:42.107Z,100600.63
2022-08-29T09:22:36.159Z,100603.78
2022-08-29T09:25:28.175Z,100585.22
2022-08-29T09:28:09.466Z,100596.22
2022-08-29T09:31:16.751Z,100598.84
2022-08-29T09:34:11.970Z,100594.31
2022-08-29T09:36:55.827Z,100592.69
2022-08-29T09:39:49.983Z,100598.44
2022-08-29T09:42:40.224Z,100596.84
2022-08-29T09:45:34.173Z,100593.50
2022-08-29T09:48:21.306Z,100600.41
2022-08-29T09:51:40.692Z,100598.56
2022-08-29T09:54:31.979Z,100602.03
2022-08-29T09:57:25.555Z,100607.19
2022-08-29T10:00:27.351Z,100595.19
2022-08-29T10:03:26.577Z,100603.19
2022-08-29T10:06:14.466Z,100607.19
2022-08-29T10:09:09.064Z,100614.66
2022-08-29T10:12:14.430Z,100612.09
2022-08-29T10:15:07.262Z,100609.00
2022-08-29T10:18:51.371Z,100608.56
2022-08-29T10:22:12.094Z,100608.22
2022-08-29T10:25:12.237Z,100604.28
2022-08-29T10:28:13.114Z,100610.69
2022-08-29T10:31:37.135Z,100598.31
2022-08-29T10:34:32.745Z,100607.50
2022-08-29T10:37:37.633Z,100602.47
2022-08-29T10:40:37.005Z,100602.50
2022-08-29T10:43:30.519Z,100601.16
2022-08-29T10:46:33.150Z,100612.00
2022-08-29T10:49:49.018Z,100604.63
2022-08-29T10:52:54.059Z,100598.66
2022-08-29T10:55:37.127Z,100602.19
2022-08-29T10:58:48.051Z,100607.25
2022-08-29T11:01:48.976Z,100603.31
2022-08-29T11:04:52.025Z,100604.91
2022-08-29T11:08:04.008Z,100594.03
2022-08-29T11:10:49.930Z,100599.34
2022-08-29T11:13:47.005Z,100597.41
2022-08-29T11:16:48.047Z,100605.31
2022-08-29T11:19:53.026Z,100594.53
2022-08-29T11:22:48.485Z,100588.66
2022-08-29T11:25:36.010Z,100597.34
2022-08-29T11:28:53.499Z,100595.03
2022-08-29T11:31:55.085Z,100597.69
2022-08-29T11:35:20.020Z,100589.91
2022-08-29T11:38:24.107Z,100599.91
2022-08-29T11:41:35.008Z,100579.88
2022-08-29T11:44:57.411Z,100576.41
2022-08-29T11:48:04.968Z,100589.53
2022-08-29T11:50:53.006Z,100586.88
2022-08-29T11:53:37.637Z,100587.09
2022-08-29T11:56:28.190Z,100579.50
2022-08-29T11:59:08.371Z,100589.13
2022-08-29T12:01:55.154Z,100584.94
2022-08-29T12:05:23.963Z,100586.78
2022-08-29T12:08:33.607Z,100585.25
2022-08-29T12:11:21.964Z,100586.22
2022-08-29T12:14:06.331Z,100589.53
2022-08-29T12:16:57.939Z,100583.91
2022-08-29T12:20:17.123Z,100573.88
2022-08-29T12:23:24.981Z,100561.47
2022-08-29T12:26:32.233Z,100570.56
2022-08-29T12:29:11.942Z,100568.25
2022-08-29T12:32:23.080Z,100562.31
2022-08-29T12:35:45.913Z,100565.81
2022-08-29T12:38:56.910Z,100563.06
2022-08-29T12:41:52.923Z,100558.69
2022-08-29T12:44:43.871Z,100553.59
2022-08-29T12:47:46.177Z,100558.16
2022-08-29T12:50:35.810Z,100558.56
2022-08-29T12:53:43.910Z,100560.25
2022-08-29T12:56:32.898Z,100554.59
2022-08-29T12:59:19.914Z,100551.28
2022-08-29T13:02:00.944Z,100557.25
2022-08-29T13:04:47.923Z,100557.09
2022-08-29T13:07:29.696Z,100555.63
2022-08-29T13:10:16.929Z,100554.09
2022-08-29T13:13:09.079Z,100548.59
2022-08-29T13:15:55.937Z,100540.56
2022-08-29T13:19:07.269Z,100540.34
2022-08-29T13:21:49.931Z,100533.97
2022-08-29T13:24:36.869Z,100530.03
2022-08-29T13:27:27.014Z,100525.16
2022-08-29T13:30:07.871Z,100531.31
2022-08-29T13:32:50.118Z,100524.38
2022-08-29T13:35:45.995Z,100526.13
2022-08-29T13:38:36.890Z,100517.97
2022-08-29T13:41:23.895Z,100529.84
2022-08-29T13:44:10.936Z,100520.38
2022-08-29T13:46:51.561Z,100517.06
2022-08-29T13:49:40.839Z,100528.22
2022-08-29T13:52:31.601Z,100514.66
2022-08-29T13:55:19.238Z,100514.84
2022-08-29T13:58:01.829Z,100518.69
2022-08-29T14:00:42.422Z,100511.81
2022-08-29T14:03:30.026Z,100509.94
2022-08-29T14:06:17.057Z,100511.47
2022-08-29T14:08:57.871Z,100506.97
2022-08-29T14:11:44.842Z,100510.34
2022-08-29T14:14:25.039Z,100504.84
2022-08-29T14:17:14.312Z,100507.97
2022-08-29T14:20:04.885Z,100502.41
2022-08-29T14:22:52.955Z,100501.56
2022-08-29T14:25:32.834Z,100498.72
2022-08-29T14:28:26.883Z,100499.41
2022-08-29T14:31:07.411Z,100495.34
2022-08-29T14:33:53.819Z,100498.66
2022-08-29T14:36:34.979Z,100495.25
2022-08-29T14:39:26.572Z,100498.88
2022-08-29T14:42:07.353Z,100501.41
2022-08-29T14:44:53.783Z,100502.16
2022-08-29T14:47:40.790Z,100493.41
2022-08-29T14:50:20.929Z,100491.47
2022-08-29T14:53:07.929Z,100488.50
2022-08-29T14:55:47.918Z,100484.41
2022-08-29T14:58:34.873Z,100485.97
2022-08-29T15:01:21.952Z,100484.03
2022-08-29T15:04:08.897Z,100480.44
2022-08-29T15:06:48.995Z,100483.13
2022-08-29T15:09:35.792Z,100496.25
2022-08-29T15:28:02.182Z,100476.78
2022-08-29T15:30:49.274Z,100468.28
2022-08-29T15:33:37.131Z,100469.56
2022-08-29T15:36:24.184Z,100472.41
2022-08-29T15:39:05.778Z,100479.09
2022-08-29T15:41:52.311Z,100470.19
2022-08-29T15:44:40.781Z,100472.63
2022-08-29T15:47:27.326Z,100474.06
2022-08-29T15:50:08.156Z,100472.81
2022-08-29T15:52:48.510Z,100471.72
2022-08-29T15:55:35.123Z,100476.00
2022-08-29T15:58:22.130Z,100476.16
2022-08-29T16:01:02.397Z,100479.53
2022-08-29T16:03:50.301Z,100473.94
2022-08-29T16:06:30.309Z,100477.91
2022-08-29T16:09:18.134Z,100479.25
2022-08-29T16:12:01.442Z,100483.47
2022-08-29T16:15:06.582Z,100483.47
2022-08-29T16:17:55.095Z,100483.28
2022-08-29T16:20:37.948Z,100488.59
2022-08-29T16:23:25.096Z,100490.28
2022-08-29T16:26:12.074Z,100488.94
2022-08-29T16:28:53.475Z,100495.41
2022-08-29T16:31:41.179Z,100493.03
2022-08-29T16:34:28.119Z,100491.00
2022-08-29T16:37:08.942Z,100495.22
2022-08-29T16:39:56.116Z,100490.06
2022-08-29T16:42:55.655Z,100494.94
2022-08-29T16:45:37.810Z,100493.41
2022-08-29T16:48:25.396Z,100494.63
2022-08-29T16:51:12.152Z,100493.88
2022-08-29T16:54:00.597Z,100498.66
2022-08-29T16:56:47.059Z,100503.09
2022-08-29T16:59:34.052Z,100504.38
2022-08-29T17:02:17.469Z,100504.13
2022-08-29T17:05:04.014Z,100509.78
2022-08-29T17:07:44.133Z,100512.28
2022-08-29T17:10:31.131Z,100518.78
2022-08-29T17:13:11.113Z,100522.81
2022-08-29T17:15:58.143Z,100519.53
2022-08-29T17:18:39.362Z,100514.69
2022-08-29T17:21:26.040Z,100525.56
2022-08-29T17:24:09.334Z,100525.56
2022-08-29T17:26:56.056Z,100523.59
2022-08-29T17:29:37.259Z,100518.69
2022-08-29T17:32:24.023Z,100523.53
2022-08-29T17:35:04.174Z,100524.91
2022-08-29T17:37:51.034Z,100539.84
2022-08-29T17:40:31.248Z,100542.66
2022-08-29T17:43:19.998Z,100543.47
2022-08-29T17:46:07.098Z,100549.50
2022-08-29T17:48:55.053Z,100552.34
2022-08-29T17:51:42.017Z,100549.97
2022-08-29T17:54:24.200Z,100548.00
2022-08-29T17:57:12.995Z,100548.38
2022-08-29T17:59:53.640Z,100553.66
2022-08-29T18:02:41.057Z,100563.41
2022-08-29T18:05:27.973Z,100574.78
2022-08-29T18:08:15.026Z,100567.28
2022-08-29T18:11:01.979Z,100575.84
2022-08-29T18:13:42.176Z,100575.03
2022-08-29T18:16:29.056Z,100575.84
2022-08-29T18:19:10.297Z,100571.91
2022-08-29T18:21:57.973Z,100577.09
2022-08-29T18:24:38.052Z,100571.09
2022-08-29T18:27:24.985Z,100571.03
2022-08-29T18:30:13.951Z,100567.06
2022-08-29T18:33:01.020Z,100565.84
2022-08-29T18:35:41.309Z,100567.16
2022-08-29T18:38:28.015Z,100562.34
2022-08-29T18:41:15.976Z,100576.53
2022-08-29T18:43:56.697Z,100566.88
2022-08-29T18:46:47.900Z,100571.72
2022-08-29T18:49:46.779Z,100569.00
2022-08-29T18:52:33.915Z,100569.06
2022-08-29T18:55:20.956Z,100567.06
2022-08-29T18:58:01.116Z,100563.84
2022-08-29T19:00:49.077Z,100561.44
2022-08-29T19:03:29.014Z,100571.97
2022-08-29T19:06:16.962Z,100563.09
2022-08-29T19:08:57.307Z,100559.50
2022-08-29T19:11:43.934Z,100555.03
2022-08-29T19:14:24.134Z,100555.03
2022-08-29T19:17:10.908Z,100565.91
2022-08-29T19:20:10.194Z,100554.28
2022-08-29T19:22:56.897Z,100562.75
2022-08-29T19:25:37.017Z,100565.56
2022-08-29T19:28:25.892Z,100558.66
2022-08-29T19:31:06.575Z,100561.50
2022-08-29T19:33:52.893Z,100556.69
2022-08-29T19:36:33.017Z,100558.72
2022-08-29T19:39:19.875Z,100559.56
2022-08-29T19:42:06.889Z,100560.34
2022-08-29T19:44:56.453Z,100560.75
2022-08-29T19:47:42.837Z,100550.72
2022-08-29T19:50:24.859Z,100554.41
2022-08-29T19:53:12.887Z,100554.16
2022-08-29T19:55:53.517Z,100557.03
2022-08-29T19:58:39.973Z,100554.25
2022-08-29T20:01:20.427Z,100561.88
2022-08-29T20:04:06.915Z,100562.69
2022-08-29T20:06:47.410Z,100558.56
2022-08-29T20:09:34.878Z,100550.47
2022-08-29T20:12:15.273Z,100554.47
2022-08-29T20:15:01.853Z,100558.38
2022-08-29T20:17:43.353Z,100560.03
2022-08-29T20:20:40.173Z,100551.13
2022-08-29T20:23:26.863Z,100558.78
2022-08-29T20:26:13.854Z,100551.13
2022-08-29T20:29:01.103Z,100549.97
2022-08-29T20:31:41.842Z,100546.38
2022-08-29T20:34:28.864Z,100546.44
2022-08-29T20:37:15.851Z,100548.50
2022-08-29T20:39:56.298Z,100548.50
2022-08-29T20:42:42.857Z,100548.06
2022-08-29T20:45:24.159Z,100547.34
2022-08-29T20:48:10.824Z,100548.97
2022-08-29T20:51:01.694Z,100544.22
2022-08-29T20:53:49.771Z,100549.06
2022-08-29T20:56:36.823Z,100539.38
2022-08-29T20:59:17.937Z,100544.31
2022-08-29T21:02:05.844Z,100539.88
2022-08-29T21:05:04.634Z,100535.44
2022-08-29T21:07:51.810Z,100531.06
2022-08-29T21:10:38.779Z,100535.50
2022-08-29T21:13:26.746Z,100529.91
2022-08-29T21:16:08.294Z,100529.09
2022-08-29T21:18:57.775Z,100536.78
2022-08-29T21:21:44.804Z,100542.03
2022-08-29T21:24:26.570Z,100540.84
2022-08-29T21:27:13.797Z,100541.22
2022-08-29T21:29:57.277Z,100545.28
2022-08-29T21:32:43.804Z,100542.44
2022-08-29T21:35:30.848Z,100549.75
2022-08-29T21:38:17.773Z,100548.50
2022-08-29T21:40:58.785Z,100541.31
2022-08-29T21:43:45.763Z,100554.59
2022-08-29T21:46:38.811Z,100553.44
2022-08-29T21:49:23.160Z,100558.69
2022-08-29T21:52:09.758Z,100555.50
2022-08-29T21:54:56.755Z,100553.13
2022-08-29T21:57:58.766Z,100550.31
2022-08-29T22:00:45.192Z,100552.34
2022-08-29T22:03:31.762Z,100548.34
2022-08-29T22:06:19.727Z,100550.75
2022-08-29T22:09:07.975Z,100554.75
2022-08-29T22:11:52.870Z,100555.56
2022-08-29T22:14:58.735Z,100551.19
2022-08-29T22:17:39.333Z,100556.78
2022-08-29T22:20:26.732Z,100554.38
2022-08-29T22:23:06.907Z,100553.16
2022-08-29T22:25:53.715Z,100551.16
2022-08-29T22:28:47.740Z,100545.53
2022-08-29T22:31:34.735Z,100553.97
2022-08-29T22:34:14.854Z,100547.97
2022-08-29T22:37:02.697Z,100548.00
2022-08-29T22:39:42.855Z,100537.53
2022-08-29T22:42:30.695Z,100540.38
2022-08-29T22:45:19.698Z,100547.59
2022-08-29T22:48:06.700Z,100550.84
2022-08-29T22:50:52.002Z,100544.00
2022-08-29T22:53:45.690Z,100546.00
2022-08-29T22:56:25.974Z,100541.19
2022-08-29T22:59:13.705Z,100540.34
2022-08-29T23:01:53.809Z,100544.34
2022-08-29T23:04:42.664Z,100542.34
2022-08-29T23:07:23.777Z,100548.00
2022-08-29T23:10:12.677Z,100549.66
2022-08-29T23:12:59.649Z,100550.44
2022-08-29T23:15:40.153Z,100548.00
2022-08-29T23:18:26.689Z,100547.22
2022-08-29T23:21:13.626Z,100547.22
2022-08-29T23:24:00.649Z,100556.44
2022-08-29T23:26:49.648Z,100560.09
2022-08-29T23:29:41.870Z,100549.66
2022-08-29T23:32:22.339Z,100551.25
2022-08-29T23:35:08.627Z,100551.25
2022-08-29T23:37:55.650Z,100548.84
2022-08-29T23:40:35.875Z,100553.25
2022-08-29T23:43:23.679Z,100544.00
2022-08-29T23:46:11.759Z,100544.41
2022-08-29T23:48:52.077Z,100541.56
2022-08-29T23:51:38.660Z,100539.56
2022-08-29T23:54:25.646Z,100545.19
2022-08-29T23:57:05.708Z,100540.38
